sensor_id;sensor_type;location;lat;lon;timestamp;P1;durP1;ratioP1;P2;durP2;ratioP2
29576;SDS011;16509;53.862;10.672;2022-12-10T00:01:05;27.17;;;9.63;;
29576;SDS011;16509;53.862;10.672;2022-12-10T00:03:32;25.50;;;11.60;;
29576;SDS011;16509;53.862;10.672;2022-12-10T00:06:01;28.42;;;11.48;;
29576;SDS011;16509;53.862;10.672;2022-12-10T00:08:28;21.50;;;9.32;;
29576;SDS011;16509;53.862;10.672;2022-12-10T00:10:54;23.08;;;9.88;;
29576;SDS011;16509;53.862;10.672;2022-12-10T00:13:20;24.02;;;9.90;;
29576;SDS011;16509;53.862;10.672;2022-12-10T00:15:45;21.05;;;9.73;;
29576;SDS011;16509;53.862;10.672;2022-12-10T00:18:11;23.10;;;10.93;;
29576;SDS011;16509;53.862;10.672;2022-12-10T00:20:37;22.45;;;9.13;;
29576;SDS011;16509;53.862;10.672;2022-12-10T00:23:03;34.72;;;10.93;;
29576;SDS011;16509;53.862;10.672;2022-12-10T00:25:29;29.02;;;12.00;;
29576;SDS011;16509;53.862;10.672;2022-12-10T00:27:56;27.58;;;10.48;;
29576;SDS011;16509;53.862;10.672;2022-12-10T00:30:21;26.90;;;10.63;;
29576;SDS011;16509;53.862;10.672;2022-12-10T00:32:47;23.35;;;9.80;;
29576;SDS011;16509;53.862;10.672;2022-12-10T00:35:13;23.92;;;10.48;;
29576;SDS011;16509;53.862;10.672;2022-12-10T00:37:38;22.77;;;10.93;;
29576;SDS011;16509;53.862;10.672;2022-12-10T00:40:04;26.55;;;11.30;;
29576;SDS011;16509;53.862;10.672;2022-12-10T00:42:30;29.83;;;10.93;;
29576;SDS011;16509;53.862;10.672;2022-12-10T00:44:55;19.08;;;8.50;;
29576;SDS011;16509;53.862;10.672;2022-12-10T00:47:21;23.38;;;9.52;;
29576;SDS011;16509;53.862;10.672;2022-12-10T00:49:46;27.65;;;10.63;;
29576;SDS011;16509;53.862;10.672;2022-12-10T00:52:12;20.33;;;9.38;;
29576;SDS011;16509;53.862;10.672;2022-12-10T00:54:37;20.40;;;8.18;;
29576;SDS011;16509;53.862;10.672;2022-12-10T00:57:03;20.38;;;10.68;;
29576;SDS011;16509;53.862;10.672;2022-12-10T00:59:29;25.52;;;9.13;;
29576;SDS011;16509;53.862;10.672;2022-12-10T01:01:54;30.77;;;9.65;;
29576;SDS011;16509;53.862;10.672;2022-12-10T01:04:20;26.35;;;10.05;;
29576;SDS011;16509;53.862;10.672;2022-12-10T01:06:50;18.40;;;9.30;;
29576;SDS011;16509;53.862;10.672;2022-12-10T01:09:22;24.27;;;9.52;;
29576;SDS011;16509;53.862;10.672;2022-12-10T01:11:49;28.33;;;10.83;;
29576;SDS011;16509;53.862;10.672;2022-12-10T01:14:18;23.13;;;8.75;;
29576;SDS011;16509;53.862;10.672;2022-12-10T01:16:46;22.50;;;10.05;;
29576;SDS011;16509;53.862;10.672;2022-12-10T01:19:12;29.10;;;10.90;;
29576;SDS011;16509;53.862;10.672;2022-12-10T01:21:38;27.05;;;10.88;;
29576;SDS011;16509;53.862;10.672;2022-12-10T01:24:03;24.65;;;10.30;;
29576;SDS011;16509;53.862;10.672;2022-12-10T01:26:30;29.63;;;10.95;;
29576;SDS011;16509;53.862;10.672;2022-12-10T01:28:58;31.13;;;10.55;;
29576;SDS011;16509;53.862;10.672;2022-12-10T01:33:51;24.13;;;10.38;;
29576;SDS011;16509;53.862;10.672;2022-12-10T01:36:18;23.58;;;9.35;;
29576;SDS011;16509;53.862;10.672;2022-12-10T01:38:46;24.25;;;10.68;;
29576;SDS011;16509;53.862;10.672;2022-12-10T01:41:16;28.25;;;10.55;;
29576;SDS011;16509;53.862;10.672;2022-12-10T01:46:38;28.30;;;9.73;;
29576;SDS011;16509;53.862;10.672;2022-12-10T01:49:07;20.90;;;10.23;;
29576;SDS011;16509;53.862;10.672;2022-12-10T01:51:35;24.10;;;9.95;;
29576;SDS011;16509;53.862;10.672;2022-12-10T01:54:03;23.38;;;10.05;;
29576;SDS011;16509;53.862;10.672;2022-12-10T01:56:32;28.30;;;11.70;;
29576;SDS011;16509;53.862;10.672;2022-12-10T01:59:02;21.38;;;9.32;;
29576;SDS011;16509;53.862;10.672;2022-12-10T02:07:06;31.52;;;10.60;;
29576;SDS011;16509;53.862;10.672;2022-12-10T02:12:48;30.05;;;11.93;;
29576;SDS011;16509;53.862;10.672;2022-12-10T02:15:21;24.98;;;11.15;;
29576;SDS011;16509;53.862;10.672;2022-12-10T02:20:38;21.63;;;8.93;;
29576;SDS011;16509;53.862;10.672;2022-12-10T02:23:09;19.10;;;8.90;;
29576;SDS011;16509;53.862;10.672;2022-12-10T02:25:53;23.60;;;8.88;;
29576;SDS011;16509;53.862;10.672;2022-12-10T02:28:46;17.23;;;7.38;;
29576;SDS011;16509;53.862;10.672;2022-12-10T02:31:21;21.83;;;8.30;;
29576;SDS011;16509;53.862;10.672;2022-12-10T02:33:54;25.60;;;9.98;;
29576;SDS011;16509;53.862;10.672;2022-12-10T02:36:23;27.73;;;7.50;;
29576;SDS011;16509;53.862;10.672;2022-12-10T02:38:52;18.58;;;8.40;;
29576;SDS011;16509;53.862;10.672;2022-12-10T02:41:25;19.95;;;7.93;;
29576;SDS011;16509;53.862;10.672;2022-12-10T02:44:04;23.67;;;9.02;;
29576;SDS011;16509;53.862;10.672;2022-12-10T02:46:34;24.10;;;8.27;;
29576;SDS011;16509;53.862;10.672;2022-12-10T02:49:03;19.92;;;8.38;;
29576;SDS011;16509;53.862;10.672;2022-12-10T02:51:31;12.60;;;6.35;;
29576;SDS011;16509;53.862;10.672;2022-12-10T02:54:00;16.77;;;7.22;;
29576;SDS011;16509;53.862;10.672;2022-12-10T02:56:33;18.02;;;7.90;;
29576;SDS011;16509;53.862;10.672;2022-12-10T02:59:14;19.77;;;8.60;;
29576;SDS011;16509;53.862;10.672;2022-12-10T03:01:55;15.43;;;7.70;;
29576;SDS011;16509;53.862;10.672;2022-12-10T03:04:57;20.30;;;7.70;;
29576;SDS011;16509;53.862;10.672;2022-12-10T03:07:44;16.58;;;7.43;;
29576;SDS011;16509;53.862;10.672;2022-12-10T03:13:07;17.73;;;7.70;;
29576;SDS011;16509;53.862;10.672;2022-12-10T03:15:38;19.30;;;9.30;;
29576;SDS011;16509;53.862;10.672;2022-12-10T03:18:06;20.33;;;7.30;;
29576;SDS011;16509;53.862;10.672;2022-12-10T03:20:34;17.33;;;7.70;;
29576;SDS011;16509;53.862;10.672;2022-12-10T03:23:04;14.50;;;6.55;;
29576;SDS011;16509;53.862;10.672;2022-12-10T03:25:34;17.25;;;8.73;;
29576;SDS011;16509;53.862;10.672;2022-12-10T03:28:02;16.00;;;7.65;;
29576;SDS011;16509;53.862;10.672;2022-12-10T03:30:29;19.40;;;8.27;;
29576;SDS011;16509;53.862;10.672;2022-12-10T03:32:57;19.08;;;7.28;;
29576;SDS011;16509;53.862;10.672;2022-12-10T03:35:23;19.98;;;7.82;;
29576;SDS011;16509;53.862;10.672;2022-12-10T03:37:50;12.93;;;6.90;;
29576;SDS011;16509;53.862;10.672;2022-12-10T03:40:17;17.35;;;7.88;;
29576;SDS011;16509;53.862;10.672;2022-12-10T03:42:45;18.45;;;8.27;;
29576;SDS011;16509;53.862;10.672;2022-12-10T03:45:10;13.60;;;7.55;;
29576;SDS011;16509;53.862;10.672;2022-12-10T03:47:36;12.68;;;6.03;;
29576;SDS011;16509;53.862;10.672;2022-12-10T03:50:02;13.02;;;6.05;;
29576;SDS011;16509;53.862;10.672;2022-12-10T03:52:28;13.50;;;6.28;;
29576;SDS011;16509;53.862;10.672;2022-12-10T03:54:53;15.02;;;7.03;;
29576;SDS011;16509;53.862;10.672;2022-12-10T03:57:19;15.00;;;6.32;;
29576;SDS011;16509;53.862;10.672;2022-12-10T03:59:44;17.20;;;6.60;;
29576;SDS011;16509;53.862;10.672;2022-12-10T04:02:10;14.48;;;6.75;;
29576;SDS011;16509;53.862;10.672;2022-12-10T04:04:36;11.40;;;5.63;;
29576;SDS011;16509;53.862;10.672;2022-12-10T04:07:02;15.23;;;7.45;;
29576;SDS011;16509;53.862;10.672;2022-12-10T04:09:27;14.63;;;6.22;;
29576;SDS011;16509;53.862;10.672;2022-12-10T04:11:57;12.45;;;6.40;;
29576;SDS011;16509;53.862;10.672;2022-12-10T04:14:23;15.55;;;7.60;;
29576;SDS011;16509;53.862;10.672;2022-12-10T04:17:08;15.70;;;7.05;;
29576;SDS011;16509;53.862;10.672;2022-12-10T04:19:34;10.45;;;6.20;;
29576;SDS011;16509;53.862;10.672;2022-12-10T04:21:59;11.68;;;5.03;;
29576;SDS011;16509;53.862;10.672;2022-12-10T04:24:44;13.27;;;6.13;;
29576;SDS011;16509;53.862;10.672;2022-12-10T04:27:29;11.95;;;5.95;;
29576;SDS011;16509;53.862;10.672;2022-12-10T04:29:57;14.48;;;6.68;;
29576;SDS011;16509;53.862;10.672;2022-12-10T04:32:24;16.77;;;7.28;;
29576;SDS011;16509;53.862;10.672;2022-12-10T04:34:50;18.05;;;7.20;;
29576;SDS011;16509;53.862;10.672;2022-12-10T04:37:16;20.15;;;8.20;;
29576;SDS011;16509;53.862;10.672;2022-12-10T04:39:43;17.83;;;8.00;;
29576;SDS011;16509;53.862;10.672;2022-12-10T04:42:08;15.60;;;8.02;;
29576;SDS011;16509;53.862;10.672;2022-12-10T04:44:34;22.52;;;8.05;;
29576;SDS011;16509;53.862;10.672;2022-12-10T04:47:00;25.48;;;7.75;;
29576;SDS011;16509;53.862;10.672;2022-12-10T04:49:27;19.17;;;7.18;;
29576;SDS011;16509;53.862;10.672;2022-12-10T04:51:54;20.48;;;7.30;;
29576;SDS011;16509;53.862;10.672;2022-12-10T04:54:20;21.38;;;8.23;;
29576;SDS011;16509;53.862;10.672;2022-12-10T04:56:46;18.45;;;8.18;;
29576;SDS011;16509;53.862;10.672;2022-12-10T04:59:12;20.08;;;7.78;;
29576;SDS011;16509;53.862;10.672;2022-12-10T05:01:38;15.63;;;7.82;;
29576;SDS011;16509;53.862;10.672;2022-12-10T05:04:05;18.05;;;7.75;;
29576;SDS011;16509;53.862;10.672;2022-12-10T05:06:32;18.33;;;7.97;;
29576;SDS011;16509;53.862;10.672;2022-12-10T05:08:58;16.20;;;6.90;;
29576;SDS011;16509;53.862;10.672;2022-12-10T05:11:25;14.27;;;6.30;;
29576;SDS011;16509;53.862;10.672;2022-12-10T05:13:52;19.45;;;7.80;;
29576;SDS011;16509;53.862;10.672;2022-12-10T05:16:19;17.40;;;7.78;;
29576;SDS011;16509;53.862;10.672;2022-12-10T05:18:45;12.48;;;6.82;;
29576;SDS011;16509;53.862;10.672;2022-12-10T05:21:13;14.98;;;7.25;;
29576;SDS011;16509;53.862;10.672;2022-12-10T05:23:41;19.25;;;7.03;;
29576;SDS011;16509;53.862;10.672;2022-12-10T05:26:27;13.13;;;7.28;;
29576;SDS011;16509;53.862;10.672;2022-12-10T05:28:53;14.32;;;6.88;;
29576;SDS011;16509;53.862;10.672;2022-12-10T05:31:24;14.27;;;7.15;;
29576;SDS011;16509;53.862;10.672;2022-12-10T05:33:52;15.47;;;7.27;;
29576;SDS011;16509;53.862;10.672;2022-12-10T05:36:19;15.63;;;7.00;;
29576;SDS011;16509;53.862;10.672;2022-12-10T05:38:47;15.52;;;7.47;;
29576;SDS011;16509;53.862;10.672;2022-12-10T05:41:20;15.80;;;7.20;;
29576;SDS011;16509;53.862;10.672;2022-12-10T05:43:47;20.88;;;7.15;;
29576;SDS011;16509;53.862;10.672;2022-12-10T05:46:15;17.63;;;7.00;;
29576;SDS011;16509;53.862;10.672;2022-12-10T05:48:43;13.15;;;6.50;;
29576;SDS011;16509;53.862;10.672;2022-12-10T05:51:09;14.18;;;6.93;;
29576;SDS011;16509;53.862;10.672;2022-12-10T05:53:40;15.50;;;7.10;;
29576;SDS011;16509;53.862;10.672;2022-12-10T05:56:16;16.83;;;6.85;;
29576;SDS011;16509;53.862;10.672;2022-12-10T05:58:46;16.73;;;7.07;;
29576;SDS011;16509;53.862;10.672;2022-12-10T06:01:14;18.67;;;8.18;;
29576;SDS011;16509;53.862;10.672;2022-12-10T06:03:42;21.50;;;8.10;;
29576;SDS011;16509;53.862;10.672;2022-12-10T06:06:08;21.98;;;8.40;;
29576;SDS011;16509;53.862;10.672;2022-12-10T06:08:34;17.33;;;7.55;;
29576;SDS011;16509;53.862;10.672;2022-12-10T06:11:01;19.27;;;6.93;;
29576;SDS011;16509;53.862;10.672;2022-12-10T06:13:34;18.90;;;7.85;;
29576;SDS011;16509;53.862;10.672;2022-12-10T06:16:08;20.75;;;8.48;;
29576;SDS011;16509;53.862;10.672;2022-12-10T06:18:35;16.00;;;7.38;;
29576;SDS011;16509;53.862;10.672;2022-12-10T06:21:05;14.07;;;8.05;;
29576;SDS011;16509;53.862;10.672;2022-12-10T06:23:39;16.00;;;7.43;;
29576;SDS011;16509;53.862;10.672;2022-12-10T06:26:06;16.45;;;7.00;;
29576;SDS011;16509;53.862;10.672;2022-12-10T06:28:32;18.42;;;7.28;;
29576;SDS011;16509;53.862;10.672;2022-12-10T06:30:58;16.48;;;6.72;;
29576;SDS011;16509;53.862;10.672;2022-12-10T06:33:25;16.98;;;7.38;;
29576;SDS011;16509;53.862;10.672;2022-12-10T06:35:51;16.38;;;7.25;;
29576;SDS011;16509;53.862;10.672;2022-12-10T06:38:16;12.55;;;6.15;;
29576;SDS011;16509;53.862;10.672;2022-12-10T06:40:42;15.05;;;6.47;;
29576;SDS011;16509;53.862;10.672;2022-12-10T06:43:08;20.80;;;7.32;;
29576;SDS011;16509;53.862;10.672;2022-12-10T06:45:33;20.13;;;7.95;;
29576;SDS011;16509;53.862;10.672;2022-12-10T06:48:02;16.20;;;6.80;;
29576;SDS011;16509;53.862;10.672;2022-12-10T06:50:28;16.10;;;7.35;;
29576;SDS011;16509;53.862;10.672;2022-12-10T06:52:53;19.65;;;8.00;;
29576;SDS011;16509;53.862;10.672;2022-12-10T06:55:19;22.20;;;7.75;;
29576;SDS011;16509;53.862;10.672;2022-12-10T06:57:44;19.92;;;8.65;;
29576;SDS011;16509;53.862;10.672;2022-12-10T07:00:10;15.88;;;7.25;;
29576;SDS011;16509;53.862;10.672;2022-12-10T07:02:36;15.80;;;7.18;;
29576;SDS011;16509;53.862;10.672;2022-12-10T07:05:02;17.40;;;7.93;;
29576;SDS011;16509;53.862;10.672;2022-12-10T07:07:28;25.90;;;9.25;;
29576;SDS011;16509;53.862;10.672;2022-12-10T07:09:53;18.40;;;8.82;;
29576;SDS011;16509;53.862;10.672;2022-12-10T07:12:19;20.60;;;8.07;;
29576;SDS011;16509;53.862;10.672;2022-12-10T07:14:45;18.67;;;7.40;;
29576;SDS011;16509;53.862;10.672;2022-12-10T07:17:10;15.75;;;7.28;;
29576;SDS011;16509;53.862;10.672;2022-12-10T07:19:36;14.55;;;6.18;;
29576;SDS011;16509;53.862;10.672;2022-12-10T07:22:01;20.45;;;8.02;;
29576;SDS011;16509;53.862;10.672;2022-12-10T07:24:27;19.70;;;7.53;;
29576;SDS011;16509;53.862;10.672;2022-12-10T07:26:52;17.30;;;6.82;;
29576;SDS011;16509;53.862;10.672;2022-12-10T07:29:19;21.08;;;8.23;;
29576;SDS011;16509;53.862;10.672;2022-12-10T07:31:46;15.95;;;7.05;;
29576;SDS011;16509;53.862;10.672;2022-12-10T07:34:13;23.88;;;8.23;;
29576;SDS011;16509;53.862;10.672;2022-12-10T07:36:39;18.85;;;7.53;;
29576;SDS011;16509;53.862;10.672;2022-12-10T07:39:06;27.55;;;8.20;;
29576;SDS011;16509;53.862;10.672;2022-12-10T07:41:33;12.70;;;6.25;;
29576;SDS011;16509;53.862;10.672;2022-12-10T07:43:59;18.33;;;6.78;;
29576;SDS011;16509;53.862;10.672;2022-12-10T07:46:27;21.35;;;6.65;;
29576;SDS011;16509;53.862;10.672;2022-12-10T07:48:55;20.23;;;7.65;;
29576;SDS011;16509;53.862;10.672;2022-12-10T07:51:21;14.38;;;6.32;;
29576;SDS011;16509;53.862;10.672;2022-12-10T07:53:47;17.20;;;7.50;;
29576;SDS011;16509;53.862;10.672;2022-12-10T07:56:15;22.23;;;7.50;;
29576;SDS011;16509;53.862;10.672;2022-12-10T07:58:42;17.42;;;6.72;;
29576;SDS011;16509;53.862;10.672;2022-12-10T08:01:09;19.35;;;8.00;;
29576;SDS011;16509;53.862;10.672;2022-12-10T08:03:37;26.05;;;7.57;;
29576;SDS011;16509;53.862;10.672;2022-12-10T08:06:03;17.90;;;6.55;;
29576;SDS011;16509;53.862;10.672;2022-12-10T08:08:30;16.70;;;7.00;;
29576;SDS011;16509;53.862;10.672;2022-12-10T08:10:59;20.67;;;6.97;;
29576;SDS011;16509;53.862;10.672;2022-12-10T08:13:25;17.02;;;7.53;;
29576;SDS011;16509;53.862;10.672;2022-12-10T08:15:51;15.43;;;5.53;;
29576;SDS011;16509;53.862;10.672;2022-12-10T08:18:16;15.75;;;6.72;;
29576;SDS011;16509;53.862;10.672;2022-12-10T08:20:42;12.30;;;6.95;;
29576;SDS011;16509;53.862;10.672;2022-12-10T08:23:07;18.25;;;7.75;;
29576;SDS011;16509;53.862;10.672;2022-12-10T08:25:33;19.15;;;7.53;;
29576;SDS011;16509;53.862;10.672;2022-12-10T08:28:00;15.75;;;6.45;;
29576;SDS011;16509;53.862;10.672;2022-12-10T08:30:27;13.70;;;6.22;;
29576;SDS011;16509;53.862;10.672;2022-12-10T08:32:53;17.52;;;7.85;;
29576;SDS011;16509;53.862;10.672;2022-12-10T08:35:19;11.77;;;5.43;;
29576;SDS011;16509;53.862;10.672;2022-12-10T08:37:44;16.23;;;6.82;;
29576;SDS011;16509;53.862;10.672;2022-12-10T08:40:10;15.18;;;6.63;;
29576;SDS011;16509;53.862;10.672;2022-12-10T08:42:36;17.60;;;6.25;;
29576;SDS011;16509;53.862;10.672;2022-12-10T08:45:03;18.40;;;7.50;;
29576;SDS011;16509;53.862;10.672;2022-12-10T08:47:29;19.23;;;7.47;;
29576;SDS011;16509;53.862;10.672;2022-12-10T08:49:55;15.90;;;6.85;;
29576;SDS011;16509;53.862;10.672;2022-12-10T08:52:20;17.60;;;7.55;;
29576;SDS011;16509;53.862;10.672;2022-12-10T08:54:46;18.27;;;7.25;;
29576;SDS011;16509;53.862;10.672;2022-12-10T08:57:11;16.90;;;6.97;;
29576;SDS011;16509;53.862;10.672;2022-12-10T08:59:37;18.13;;;7.65;;
29576;SDS011;16509;53.862;10.672;2022-12-10T09:02:02;22.98;;;7.63;;
29576;SDS011;16509;53.862;10.672;2022-12-10T09:04:28;16.50;;;7.53;;
29576;SDS011;16509;53.862;10.672;2022-12-10T09:06:54;15.10;;;6.45;;
29576;SDS011;16509;53.862;10.672;2022-12-10T09:09:19;12.45;;;5.47;;
29576;SDS011;16509;53.862;10.672;2022-12-10T09:11:45;16.85;;;7.15;;
29576;SDS011;16509;53.862;10.672;2022-12-10T09:14:11;12.50;;;6.25;;
29576;SDS011;16509;53.862;10.672;2022-12-10T09:16:37;13.27;;;5.45;;
29576;SDS011;16509;53.862;10.672;2022-12-10T09:19:04;10.07;;;5.40;;
29576;SDS011;16509;53.862;10.672;2022-12-10T09:21:30;14.57;;;5.95;;
29576;SDS011;16509;53.862;10.672;2022-12-10T09:23:57;13.52;;;5.78;;
29576;SDS011;16509;53.862;10.672;2022-12-10T09:26:23;16.85;;;6.50;;
29576;SDS011;16509;53.862;10.672;2022-12-10T09:28:49;16.30;;;6.47;;
29576;SDS011;16509;53.862;10.672;2022-12-10T09:31:16;12.50;;;6.25;;
29576;SDS011;16509;53.862;10.672;2022-12-10T09:33:43;16.02;;;6.13;;
29576;SDS011;16509;53.862;10.672;2022-12-10T09:36:10;22.85;;;7.05;;
29576;SDS011;16509;53.862;10.672;2022-12-10T09:38:37;14.32;;;6.78;;
29576;SDS011;16509;53.862;10.672;2022-12-10T09:41:21;10.57;;;5.55;;
29576;SDS011;16509;53.862;10.672;2022-12-10T09:47:09;15.60;;;7.35;;
29576;SDS011;16509;53.862;10.672;2022-12-10T09:52:12;14.45;;;6.40;;
29576;SDS011;16509;53.862;10.672;2022-12-10T09:54:42;18.17;;;5.82;;
29576;SDS011;16509;53.862;10.672;2022-12-10T09:57:27;12.55;;;6.15;;
29576;SDS011;16509;53.862;10.672;2022-12-10T09:59:56;15.75;;;6.10;;
29576;SDS011;16509;53.862;10.672;2022-12-10T10:04:58;12.02;;;5.03;;
29576;SDS011;16509;53.862;10.672;2022-12-10T10:07:41;14.35;;;5.93;;
29576;SDS011;16509;53.862;10.672;2022-12-10T10:10:16;17.90;;;6.38;;
29576;SDS011;16509;53.862;10.672;2022-12-10T10:15:43;10.57;;;5.28;;
29576;SDS011;16509;53.862;10.672;2022-12-10T10:20:41;12.98;;;6.93;;
29576;SDS011;16509;53.862;10.672;2022-12-10T10:23:07;17.20;;;6.85;;
29576;SDS011;16509;53.862;10.672;2022-12-10T10:25:37;18.02;;;5.90;;
29576;SDS011;16509;53.862;10.672;2022-12-10T10:28:03;12.73;;;6.63;;
29576;SDS011;16509;53.862;10.672;2022-12-10T10:30:29;12.07;;;6.43;;
29576;SDS011;16509;53.862;10.672;2022-12-10T10:32:55;13.45;;;5.80;;
29576;SDS011;16509;53.862;10.672;2022-12-10T10:37:56;11.27;;;5.05;;
29576;SDS011;16509;53.862;10.672;2022-12-10T10:40:26;13.35;;;5.82;;
29576;SDS011;16509;53.862;10.672;2022-12-10T10:42:55;16.40;;;6.68;;
29576;SDS011;16509;53.862;10.672;2022-12-10T10:45:36;14.35;;;5.72;;
29576;SDS011;16509;53.862;10.672;2022-12-10T10:48:24;9.63;;;4.65;;
29576;SDS011;16509;53.862;10.672;2022-12-10T10:50:52;10.50;;;5.55;;
29576;SDS011;16509;53.862;10.672;2022-12-10T10:58:20;15.13;;;5.75;;
29576;SDS011;16509;53.862;10.672;2022-12-10T11:00:53;12.38;;;5.72;;
29576;SDS011;16509;53.862;10.672;2022-12-10T11:03:27;12.15;;;5.18;;
29576;SDS011;16509;53.862;10.672;2022-12-10T11:05:55;12.57;;;6.13;;
29576;SDS011;16509;53.862;10.672;2022-12-10T11:08:23;15.23;;;6.70;;
29576;SDS011;16509;53.862;10.672;2022-12-10T11:11:02;15.90;;;6.97;;
29576;SDS011;16509;53.862;10.672;2022-12-10T11:18:51;12.02;;;5.40;;
29576;SDS011;16509;53.862;10.672;2022-12-10T11:21:27;11.23;;;6.38;;
29576;SDS011;16509;53.862;10.672;2022-12-10T11:23:58;15.15;;;6.95;;
29576;SDS011;16509;53.862;10.672;2022-12-10T11:34:35;14.32;;;6.38;;
29576;SDS011;16509;53.862;10.672;2022-12-10T11:40:32;12.98;;;5.43;;
29576;SDS011;16509;53.862;10.672;2022-12-10T11:51:16;16.95;;;7.40;;
29576;SDS011;16509;53.862;10.672;2022-12-10T11:56:44;13.35;;;6.03;;
29576;SDS011;16509;53.862;10.672;2022-12-10T12:02:19;11.63;;;5.38;;
29576;SDS011;16509;53.862;10.672;2022-12-10T12:07:49;14.32;;;6.53;;
29576;SDS011;16509;53.862;10.672;2022-12-10T12:13:12;11.43;;;5.55;;
29576;SDS011;16509;53.862;10.672;2022-12-10T12:15:49;18.80;;;7.50;;
29576;SDS011;16509;53.862;10.672;2022-12-10T12:21:18;20.45;;;5.90;;
29576;SDS011;16509;53.862;10.672;2022-12-10T12:23:58;19.48;;;6.30;;
29576;SDS011;16509;53.862;10.672;2022-12-10T12:26:37;12.15;;;5.78;;
29576;SDS011;16509;53.862;10.672;2022-12-10T12:29:17;14.50;;;5.93;;
29576;SDS011;16509;53.862;10.672;2022-12-10T12:32:10;12.48;;;5.80;;
29576;SDS011;16509;53.862;10.672;2022-12-10T12:37:39;17.33;;;6.25;;
29576;SDS011;16509;53.862;10.672;2022-12-10T12:43:03;27.55;;;7.82;;
29576;SDS011;16509;53.862;10.672;2022-12-10T12:45:36;14.32;;;6.43;;
29576;SDS011;16509;53.862;10.672;2022-12-10T12:53:14;10.75;;;5.65;;
29576;SDS011;16509;53.862;10.672;2022-12-10T12:55:46;17.48;;;7.05;;
29576;SDS011;16509;53.862;10.672;2022-12-10T13:01:07;16.35;;;6.18;;
29576;SDS011;16509;53.862;10.672;2022-12-10T13:03:39;15.55;;;5.95;;
29576;SDS011;16509;53.862;10.672;2022-12-10T13:06:20;13.43;;;6.55;;
29576;SDS011;16509;53.862;10.672;2022-12-10T13:08:49;16.60;;;5.00;;
29576;SDS011;16509;53.862;10.672;2022-12-10T13:11:29;10.23;;;5.35;;
29576;SDS011;16509;53.862;10.672;2022-12-10T13:14:11;11.05;;;5.45;;
29576;SDS011;16509;53.862;10.672;2022-12-10T13:16:58;11.98;;;5.20;;
29576;SDS011;16509;53.862;10.672;2022-12-10T13:19:33;15.77;;;5.72;;
29576;SDS011;16509;53.862;10.672;2022-12-10T13:22:04;15.60;;;6.90;;
29576;SDS011;16509;53.862;10.672;2022-12-10T13:29:56;13.27;;;4.88;;
29576;SDS011;16509;53.862;10.672;2022-12-10T13:32:23;23.88;;;6.55;;
29576;SDS011;16509;53.862;10.672;2022-12-10T13:37:33;14.68;;;5.32;;
29576;SDS011;16509;53.862;10.672;2022-12-10T13:49:00;13.88;;;5.63;;
29576;SDS011;16509;53.862;10.672;2022-12-10T14:00:15;15.10;;;6.95;;
29576;SDS011;16509;53.862;10.672;2022-12-10T14:08:13;10.93;;;5.45;;
29576;SDS011;16509;53.862;10.672;2022-12-10T14:10:56;12.45;;;4.95;;
29576;SDS011;16509;53.862;10.672;2022-12-10T14:13:30;10.32;;;5.18;;
29576;SDS011;16509;53.862;10.672;2022-12-10T14:16:00;12.20;;;6.50;;
29576;SDS011;16509;53.862;10.672;2022-12-10T14:18:27;18.52;;;5.70;;
29576;SDS011;16509;53.862;10.672;2022-12-10T14:20:53;12.95;;;5.93;;
29576;SDS011;16509;53.862;10.672;2022-12-10T14:23:28;20.90;;;7.10;;
29576;SDS011;16509;53.862;10.672;2022-12-10T14:26:02;19.40;;;8.63;;
29576;SDS011;16509;53.862;10.672;2022-12-10T14:28:50;58.30;;;18.17;;
29576;SDS011;16509;53.862;10.672;2022-12-10T14:31:21;15.52;;;6.88;;
29576;SDS011;16509;53.862;10.672;2022-12-10T14:33:52;15.27;;;5.72;;
29576;SDS011;16509;53.862;10.672;2022-12-10T14:36:24;23.02;;;9.63;;
29576;SDS011;16509;53.862;10.672;2022-12-10T14:38:53;16.02;;;7.13;;
29576;SDS011;16509;53.862;10.672;2022-12-10T14:41:20;18.85;;;8.70;;
29576;SDS011;16509;53.862;10.672;2022-12-10T14:43:48;12.70;;;6.13;;
29576;SDS011;16509;53.862;10.672;2022-12-10T14:46:18;15.93;;;7.18;;
29576;SDS011;16509;53.862;10.672;2022-12-10T14:48:48;13.95;;;6.18;;
29576;SDS011;16509;53.862;10.672;2022-12-10T14:51:18;16.05;;;6.53;;
29576;SDS011;16509;53.862;10.672;2022-12-10T14:53:47;13.77;;;5.60;;
29576;SDS011;16509;53.862;10.672;2022-12-10T14:58:51;14.75;;;5.97;;
29576;SDS011;16509;53.862;10.672;2022-12-10T15:01:26;11.95;;;4.85;;
29576;SDS011;16509;53.862;10.672;2022-12-10T15:03:58;11.60;;;5.07;;
29576;SDS011;16509;53.862;10.672;2022-12-10T15:06:26;10.50;;;4.90;;
29576;SDS011;16509;53.862;10.672;2022-12-10T15:08:55;9.00;;;4.47;;
29576;SDS011;16509;53.862;10.672;2022-12-10T15:11:24;10.38;;;4.43;;
29576;SDS011;16509;53.862;10.672;2022-12-10T15:13:53;17.58;;;7.22;;
29576;SDS011;16509;53.862;10.672;2022-12-10T15:19:06;14.65;;;5.68;;
29576;SDS011;16509;53.862;10.672;2022-12-10T15:21:45;23.90;;;8.48;;
29576;SDS011;16509;53.862;10.672;2022-12-10T15:24:21;15.23;;;7.05;;
29576;SDS011;16509;53.862;10.672;2022-12-10T15:26:52;16.90;;;5.28;;
29576;SDS011;16509;53.862;10.672;2022-12-10T15:31:47;12.35;;;6.00;;
29576;SDS011;16509;53.862;10.672;2022-12-10T15:34:13;12.93;;;5.40;;
29576;SDS011;16509;53.862;10.672;2022-12-10T15:36:52;6.90;;;3.55;;
29576;SDS011;16509;53.862;10.672;2022-12-10T15:39:28;12.73;;;4.90;;
29576;SDS011;16509;53.862;10.672;2022-12-10T15:41:55;7.50;;;4.38;;
29576;SDS011;16509;53.862;10.672;2022-12-10T15:46:52;10.27;;;4.80;;
29576;SDS011;16509;53.862;10.672;2022-12-10T15:49:27;14.70;;;5.45;;
29576;SDS011;16509;53.862;10.672;2022-12-10T15:51:53;10.57;;;4.60;;
29576;SDS011;16509;53.862;10.672;2022-12-10T15:54:19;11.07;;;5.55;;
29576;SDS011;16509;53.862;10.672;2022-12-10T15:56:47;12.68;;;5.28;;
29576;SDS011;16509;53.862;10.672;2022-12-10T15:59:12;8.57;;;4.78;;
29576;SDS011;16509;53.862;10.672;2022-12-10T16:01:38;8.85;;;4.70;;
29576;SDS011;16509;53.862;10.672;2022-12-10T16:04:04;10.27;;;4.72;;
29576;SDS011;16509;53.862;10.672;2022-12-10T16:06:30;8.80;;;4.57;;
29576;SDS011;16509;53.862;10.672;2022-12-10T16:08:56;15.93;;;5.05;;
29576;SDS011;16509;53.862;10.672;2022-12-10T16:11:21;9.55;;;4.65;;
29576;SDS011;16509;53.862;10.672;2022-12-10T16:13:51;11.90;;;5.55;;
29576;SDS011;16509;53.862;10.672;2022-12-10T16:16:19;9.45;;;4.38;;
29576;SDS011;16509;53.862;10.672;2022-12-10T16:18:46;11.13;;;4.07;;
29576;SDS011;16509;53.862;10.672;2022-12-10T16:21:12;9.52;;;4.78;;
29576;SDS011;16509;53.862;10.672;2022-12-10T16:23:40;7.80;;;4.30;;
29576;SDS011;16509;53.862;10.672;2022-12-10T16:26:16;9.85;;;5.10;;
29576;SDS011;16509;53.862;10.672;2022-12-10T16:28:44;7.85;;;4.10;;
29576;SDS011;16509;53.862;10.672;2022-12-10T16:31:21;9.55;;;4.28;;
29576;SDS011;16509;53.862;10.672;2022-12-10T16:33:47;10.32;;;4.47;;
29576;SDS011;16509;53.862;10.672;2022-12-10T16:36:16;10.55;;;4.75;;
29576;SDS011;16509;53.862;10.672;2022-12-10T16:38:42;10.60;;;4.90;;
29576;SDS011;16509;53.862;10.672;2022-12-10T16:41:18;18.70;;;5.13;;
29576;SDS011;16509;53.862;10.672;2022-12-10T16:43:47;12.15;;;4.55;;
29576;SDS011;16509;53.862;10.672;2022-12-10T16:46:13;11.82;;;5.63;;
29576;SDS011;16509;53.862;10.672;2022-12-10T16:48:39;10.52;;;5.50;;